Time;durP1;ratioP1;P1;durP2;ratioP2;P2;SDS_P1;SDS_P2;PMS_P1;PMS_P2;Temp;Humidity;BMP_temperature;BMP_pressure;BME280_temperature;BME280_humidity;BME280_pressure;Samples;Min_cycle;Max_cycle;Signal;HPM_P1;HPM_P2
2021/07/09 00:03:57;;;;;;;12.45;7.68;;;;;;;18.71;84.46;101952.53;10028697;29;20197;-70
2021/07/09 00:08:53;;;;;;;9.38;7.88;;;;;;;18.67;84.26;101946.06;10034875;29;20044;-70
2021/07/09 00:13:50;;;;;;;15.27;8.55;;;;;;;18.64;84.54;101946.75;10032879;29;20047;-69
2021/07/09 00:18:48;;;;;;;12.30;7.70;;;;;;;18.59;84.60;101944.19;10034598;29;20135;-69
2021/07/09 00:23:45;;;;;;;21.50;7.68;;;;;;;18.63;84.57;101928.50;10032824;28;20071;-72
2021/07/09 00:28:42;;;;;;;10.05;6.70;;;;;;;18.59;84.02;101922.03;10028477;29;20604;-71
2021/07/09 00:33:39;;;;;;;10.98;6.50;;;;;;;18.55;84.04;101921.09;10040664;29;20047;-72
2021/07/09 00:38:35;;;;;;;9.93;6.20;;;;;;;18.51;84.02;101914.63;10030731;29;20106;-71
2021/07/09 00:43:32;;;;;;;8.60;6.15;;;;;;;18.47;83.60;101905.38;10025466;29;20075;-72
2021/07/09 00:48:29;;;;;;;9.70;7.05;;;;;;;18.44;83.43;101911.63;10013907;29;20504;-71
2021/07/09 00:53:26;;;;;;;9.52;6.07;;;;;;;18.42;83.67;101916.69;10034701;29;20468;-70
2021/07/09 00:58:23;;;;;;;8.18;5.78;;;;;;;18.41;83.82;101912.31;10028405;29;20102;-67
2021/07/09 01:03:20;;;;;;;13.07;7.32;;;;;;;18.34;83.94;101920.38;10035610;29;20508;-67
2021/07/09 01:08:18;;;;;;;10.60;5.80;;;;;;;18.41;84.17;101915.09;10036699;29;20090;-67
2021/07/09 01:13:15;;;;;;;12.35;5.88;;;;;;;18.40;84.46;101918.97;10028253;29;20118;-68
2021/07/09 01:18:12;;;;;;;6.63;5.25;;;;;;;18.39;84.15;101911.84;10028440;29;20047;-71
2021/07/09 01:23:10;;;;;;;8.50;5.80;;;;;;;18.36;84.06;101913.34;10029721;28;20086;-71
2021/07/09 01:28:08;;;;;;;6.38;5.10;;;;;;;18.32;84.04;101911.59;10019972;29;20142;-71
2021/07/09 01:33:05;;;;;;;11.43;5.78;;;;;;;18.32;84.01;101903.28;10031984;29;20067;-69
2021/07/09 01:38:06;;;;;;;10.30;6.70;;;;;;;18.32;84.11;101906.06;10033332;29;20090;-70
2021/07/09 01:43:03;;;;;;;13.18;5.70;;;;;;;18.32;84.31;101906.06;10031240;29;20052;-69
2021/07/09 01:48:01;;;;;;;15.07;6.50;;;;;;;18.30;84.14;101898.88;10025747;29;20102;-70
2021/07/09 01:52:58;;;;;;;8.48;6.13;;;;;;;18.32;84.09;101894.97;10028700;29;20079;-69
2021/07/09 01:57:54;;;;;;;9.40;5.97;;;;;;;18.31;83.90;101894.19;10027788;29;20048;-69
2021/07/09 02:02:51;;;;;;;7.88;6.38;;;;;;;18.25;84.13;101888.03;10024529;29;20137;-70
2021/07/09 02:07:50;;;;;;;8.95;6.53;;;;;;;18.25;84.34;101895.53;10026224;29;20079;-69
2021/07/09 02:12:52;;;;;;;12.98;7.78;;;;;;;18.21;84.58;101906.47;10024919;29;20060;-72
2021/07/09 02:17:49;;;;;;;16.50;6.55;;;;;;;18.25;85.36;101907.41;10029258;29;20642;-71
2021/07/09 02:22:46;;;;;;;11.43;6.97;;;;;;;18.26;85.29;101906.28;10034137;29;20070;-71
2021/07/09 02:27:46;;;;;;;10.18;7.15;;;;;;;18.25;84.98;101918.47;10033301;29;20460;-69
2021/07/09 02:32:44;;;;;;;11.75;7.70;;;;;;;18.24;85.10;101927.13;10029540;29;20122;-69
2021/07/09 02:37:42;;;;;;;10.55;6.63;;;;;;;18.21;85.11;101923.06;10032889;29;20043;-71
2021/07/09 02:42:44;;;;;;;12.77;6.97;;;;;;;18.20;85.22;101921.47;10036344;29;20099;-69
2021/07/09 02:47:41;;;;;;;12.70;8.60;;;;;;;18.15;85.30;101918.91;10037799;29;20538;-69
2021/07/09 02:52:38;;;;;;;12.45;8.15;;;;;;;18.10;85.31;101919.09;10037127;29;20508;-69
2021/07/09 02:57:35;;;;;;;14.20;8.95;;;;;;;18.08;85.28;101913.13;10029886;29;20646;-69
2021/07/09 03:02:32;;;;;;;12.13;7.53;;;;;;;18.03;85.38;101905.03;10032610;29;20071;-70
2021/07/09 03:07:28;;;;;;;12.95;8.38;;;;;;;18.02;85.54;101908.94;10033760;29;20098;-70
2021/07/09 03:12:25;;;;;;;11.27;8.05;;;;;;;18.02;85.72;101886.81;10041532;29;20485;-70
2021/07/09 03:17:21;;;;;;;16.25;9.18;;;;;;;18.04;85.64;101885.31;10033459;29;20124;-71
2021/07/09 03:22:18;;;;;;;13.40;7.20;;;;;;;18.06;85.92;101882.22;10038389;29;20419;-71
2021/07/09 03:27:14;;;;;;;15.15;8.07;;;;;;;18.06;85.71;101879.44;10030898;29;20127;-73
2021/07/09 03:32:11;;;;;;;10.13;7.50;;;;;;;18.06;85.70;101882.22;10040795;29;20043;-69
2021/07/09 03:37:07;;;;;;;10.70;7.25;;;;;;;18.04;85.53;101887.28;10034803;29;20147;-70
2021/07/09 03:42:04;;;;;;;11.65;8.38;;;;;;;18.05;85.38;101886.13;10029962;29;20048;-70
2021/07/09 03:47:01;;;;;;;14.18;9.38;;;;;;;18.03;85.45;101883.72;10026729;29;20047;-69
2021/07/09 03:51:57;;;;;;;14.52;8.45;;;;;;;18.04;85.08;101892.81;10026801;29;20055;-70
2021/07/09 03:56:54;;;;;;;12.50;9.48;;;;;;;18.02;85.38;101886.81;10027333;29;20492;-70
2021/07/09 04:01:50;;;;;;;17.55;9.60;;;;;;;17.95;85.61;101875.47;10039999;29;20074;-70
2021/07/09 04:06:47;;;;;;;13.48;8.75;;;;;;;17.98;85.74;101869.25;10026625;29;20139;-71
2021/07/09 04:11:43;;;;;;;16.23;10.20;;;;;;;18.00;85.45;101855.91;10020962;29;20750;-69
2021/07/09 04:16:40;;;;;;;14.55;9.82;;;;;;;18.02;85.66;101843.34;10018675;29;20095;-69
2021/07/09 04:21:36;;;;;;;23.52;9.48;;;;;;;18.04;85.80;101837.47;10034409;29;20052;-70
2021/07/09 04:26:34;;;;;;;12.68;7.55;;;;;;;18.06;85.64;101821.34;10042343;28;20051;-71
2021/07/09 04:31:30;;;;;;;12.02;7.57;;;;;;;18.10;85.72;101822.25;10030723;29;20052;-69
2021/07/09 04:36:27;;;;;;;14.35;7.63;;;;;;;18.14;85.82;101823.19;10027844;28;20071;-70
2021/07/09 04:41:24;;;;;;;13.60;7.97;;;;;;;18.17;86.04;101828.06;10037623;28;20040;-67
2021/07/09 04:46:21;;;;;;;14.93;9.43;;;;;;;18.14;85.74;101817.66;10042216;28;20047;-67
2021/07/09 04:51:17;;;;;;;12.38;8.90;;;;;;;18.19;85.59;101825.72;10026462;29;20043;-67
2021/07/09 04:56:14;;;;;;;11.70;7.57;;;;;;;18.26;85.61;101837.06;10025207;29;20082;-72
2021/07/09 05:01:12;;;;;;;11.32;7.15;;;;;;;18.36;85.97;101835.00;10015803;29;20076;-66
2021/07/09 05:06:08;;;;;;;11.52;7.53;;;;;;;18.40;85.54;101830.38;10025988;29;20571;-66
2021/07/09 05:11:05;;;;;;;11.32;7.63;;;;;;;18.42;85.40;101833.63;10026773;29;20074;-67
2021/07/09 05:16:02;;;;;;;12.07;6.75;;;;;;;18.41;85.18;101838.34;10036093;29;20047;-66
2021/07/09 05:21:01;;;;;;;9.00;6.97;;;;;;;18.46;85.16;101842.84;10028804;29;20130;-68
2021/07/09 05:25:58;;;;;;;9.55;7.80;;;;;;;18.50;85.57;101835.47;10031335;28;20088;-70
2021/07/09 05:30:55;;;;;;;13.07;9.23;;;;;;;18.42;85.56;101839.16;9998415;29;20075;-68
2021/07/09 05:35:52;;;;;;;11.32;9.75;;;;;;;18.45;85.67;101827.38;10034410;29;20054;-68
2021/07/09 05:40:48;;;;;;;12.48;8.55;;;;;;;18.46;85.68;101829.00;10029087;29;20159;-69
2021/07/09 05:45:46;;;;;;;12.00;10.60;;;;;;;18.49;85.66;101820.00;10028561;29;20051;-68
2021/07/09 05:50:45;;;;;;;10.80;9.30;;;;;;;18.35;85.33;101811.22;10028485;29;20051;-67
2021/07/09 05:55:41;;;;;;;11.95;9.82;;;;;;;18.40;85.51;101830.38;10024577;29;20598;-68
2021/07/09 06:00:39;;;;;;;17.42;10.15;;;;;;;18.58;85.88;101819.91;10023064;29;20079;-68
2021/07/09 06:05:36;;;;;;;13.32;9.25;;;;;;;18.62;85.92;101831.91;10022710;29;20500;-67
2021/07/09 06:10:34;;;;;;;14.63;9.85;;;;;;;18.71;86.83;101836.19;10025079;29;20535;-66
2021/07/09 06:15:31;;;;;;;12.35;8.38;;;;;;;18.83;86.27;101837.38;10035240;29;20500;-67
2021/07/09 06:20:46;;;;;;;11.90;8.82;;;;;;;18.94;85.77;101835.75;10036507;29;20048;-69
2021/07/09 06:25:42;;;;;;;10.68;7.97;;;;;;;18.97;85.24;101835.03;10026328;29;20699;-68
2021/07/09 06:30:39;;;;;;;14.75;8.25;;;;;;;19.03;85.86;101822.56;10039024;29;20044;-68
2021/07/09 06:35:36;;;;;;;13.68;8.55;;;;;;;19.06;85.08;101821.06;10028000;29;20415;-69
2021/07/09 06:40:33;;;;;;;8.98;6.88;;;;;;;19.08;84.68;101827.88;10049936;29;20075;-68
2021/07/09 06:45:30;;;;;;;9.38;7.03;;;;;;;19.06;84.15;101841.25;10013873;29;20090;-70
2021/07/09 06:50:26;;;;;;;10.35;6.80;;;;;;;19.13;84.48;101830.41;10032063;29;20047;-67
2021/07/09 06:55:23;;;;;;;7.57;5.82;;;;;;;19.17;83.73;101829.69;10042010;29;20060;-69
2021/07/09 07:00:20;;;;;;;13.52;5.68;;;;;;;19.28;84.36;101819.72;10033423;28;20098;-68
2021/07/09 07:05:17;;;;;;;7.15;4.90;;;;;;;19.39;82.81;101831.16;10042898;29;20134;-72
2021/07/09 07:10:14;;;;;;;6.43;4.80;;;;;;;19.44;82.15;101831.69;10031854;29;20091;-68
2021/07/09 07:15:11;;;;;;;6.63;4.50;;;;;;;19.46;81.22;101826.59;10026205;29;20050;-67
2021/07/09 07:20:08;;;;;;;8.68;4.70;;;;;;;19.53;81.28;101829.59;10034520;29;20095;-70
2021/07/09 07:25:05;;;;;;;9.43;5.20;;;;;;;19.49;81.54;101825.91;10032441;29;20083;-67
2021/07/09 07:30:03;;;;;;;7.45;4.28;;;;;;;19.52;80.35;101836.31;10043311;29;20095;-68
2021/07/09 07:35:00;;;;;;;7.13;4.55;;;;;;;19.57;80.82;101845.56;10033452;29;20482;-68
2021/07/09 07:39:56;;;;;;;8.55;4.70;;;;;;;19.64;79.01;101845.75;10021345;29;20679;-69
2021/07/09 07:44:53;;;;;;;10.48;5.35;;;;;;;19.70;79.14;101842.41;10036361;29;20047;-68
2021/07/09 07:49:50;;;;;;;6.50;4.45;;;;;;;19.80;81.10;101845.84;10023100;29;20134;-69
2021/07/09 07:54:46;;;;;;;9.60;5.20;;;;;;;19.79;79.07;101845.00;10030234;29;20075;-67
2021/07/09 07:59:45;;;;;;;9.13;4.57;;;;;;;19.71;78.08;101848.75;10032309;29;20091;-67
2021/07/09 08:04:41;;;;;;;6.40;4.53;;;;;;;19.75;78.51;101841.34;10032001;29;20048;-68
2021/07/09 08:09:38;;;;;;;7.45;4.60;;;;;;;19.81;77.92;101853.78;10027309;29;20349;-70
2021/07/09 08:14:35;;;;;;;8.20;4.75;;;;;;;19.82;77.74;101849.03;10029465;29;20110;-70
2021/07/09 08:19:32;;;;;;;7.80;4.50;;;;;;;19.81;76.67;101859.34;10030944;29;20146;-70
2021/07/09 08:24:29;;;;;;;6.07;3.80;;;;;;;19.87;75.25;101849.59;10033787;28;20052;-68
2021/07/09 08:29:26;;;;;;;7.68;3.70;;;;;;;19.93;74.84;101864.81;10038295;29;20078;-68
2021/07/09 08:34:23;;;;;;;5.25;3.95;;;;;;;20.02;74.75;101869.44;10036746;29;20054;-69
2021/07/09 08:39:20;;;;;;;7.15;4.00;;;;;;;20.19;74.32;101866.34;10035137;29;20518;-68
2021/07/09 08:44:17;;;;;;;5.35;3.40;;;;;;;20.38;73.44;101874.78;10013379;29;20516;-69
2021/07/09 08:49:16;;;;;;;6.72;3.90;;;;;;;20.52;72.20;101870.75;10016463;29;20516;-68
2021/07/09 08:54:14;;;;;;;5.20;3.15;;;;;;;20.55;71.28;101867.25;10026685;29;20118;-69
2021/07/09 08:59:11;;;;;;;5.80;3.42;;;;;;;20.61;71.12;101851.97;10017123;29;20045;-67
2021/07/09 09:04:07;;;;;;;7.30;3.25;;;;;;;20.85;70.72;101847.38;10015760;29;20090;-70
2021/07/09 09:09:14;;;;;;;5.20;2.83;;;;;;;20.86;70.17;101844.22;10025772;29;20086;-68
2021/07/09 09:14:23;;;;;;;4.82;2.53;;;;;;;21.06;71.39;101845.09;10021762;29;20040;-68
2021/07/09 09:19:21;;;;;;;6.70;2.83;;;;;;;20.98;69.34;101848.88;10025023;29;20603;-68
2021/07/09 09:24:27;;;;;;;7.05;2.25;;;;;;;21.04;69.67;101841.84;10021939;29;20071;-73
2021/07/09 09:29:27;;;;;;;4.95;2.40;;;;;;;20.97;68.94;101833.34;10024409;29;20499;-71
2021/07/09 09:34:47;;;;;;;4.60;2.50;;;;;;;21.04;69.32;101827.16;10025279;29;20138;-68
2021/07/09 09:39:46;;;;;;;4.25;2.47;;;;;;;21.09;68.89;101822.09;10021129;29;20531;-68
2021/07/09 09:44:42;;;;;;;8.00;2.35;;;;;;;20.99;69.00;101831.03;10029743;29;20044;-68
2021/07/09 09:49:39;;;;;;;4.43;2.33;;;;;;;21.05;69.15;101826.81;10022282;29;20039;-70
2021/07/09 09:54:36;;;;;;;5.32;2.60;;;;;;;21.00;69.10;101824.28;10027158;29;20484;-71
2021/07/09 09:59:32;;;;;;;6.72;2.50;;;;;;;20.98;69.10;101829.44;10026224;29;20052;-68
2021/07/09 10:04:30;;;;;;;5.18;2.67;;;;;;;20.89;69.19;101820.47;10026017;29;20134;-68
2021/07/09 10:09:28;;;;;;;5.63;2.55;;;;;;;20.80;68.36;101821.47;10034777;29;20511;-67
2021/07/09 10:14:28;;;;;;;4.45;2.30;;;;;;;20.82;68.39;101807.22;10028609;29;20091;-69
2021/07/09 10:19:28;;;;;;;8.27;2.92;;;;;;;20.83;68.47;101813.56;10025177;29;20047;-69
2021/07/09 10:24:25;;;;;;;7.70;3.53;;;;;;;20.92;68.89;101805.84;10025166;29;20433;-69
2021/07/09 10:29:24;;;;;;;5.15;2.30;;;;;;;20.90;67.21;101808.19;10012292;29;20083;-68
2021/07/09 10:34:47;;;;;;;3.60;2.15;;;;;;;20.79;67.43;101797.63;10024058;29;20051;-70
2021/07/09 10:39:48;;;;;;;7.80;2.33;;;;;;;20.97;67.10;101800.78;10016985;29;20106;-71
2021/07/09 10:44:56;;;;;;;5.50;2.28;;;;;;;21.05;66.26;101799.00;10023466;29;20486;-70
2021/07/09 10:49:54;;;;;;;5.53;2.33;;;;;;;21.08;66.16;101803.03;10021988;29;20052;-71
2021/07/09 10:54:50;;;;;;;5.50;2.00;;;;;;;21.15;65.90;101792.84;10023776;28;20054;-71
2021/07/09 11:00:21;;;;;;;4.32;1.80;;;;;;;21.22;65.93;101787.44;10031715;29;20036;-71
2021/07/09 11:05:42;;;;;;;4.88;2.05;;;;;;;21.25;66.05;101779.53;10025035;29;20056;-70
2021/07/09 11:11:01;;;;;;;4.68;2.33;;;;;;;21.22;66.18;101781.88;10034042;29;20040;-68
2021/07/09 11:16:15;;;;;;;5.32;2.50;;;;;;;21.11;66.21;101780.84;10026666;29;20039;-70
2021/07/09 11:21:34;;;;;;;4.32;2.33;;;;;;;21.07;66.12;101785.50;10033464;28;20044;-71
2021/07/09 11:26:37;;;;;;;4.97;2.28;;;;;;;21.06;67.83;101783.91;10033196;29;20159;-68
2021/07/09 11:31:40;;;;;;;5.90;2.38;;;;;;;21.02;67.34;101788.59;10042814;29;20050;-70
2021/07/09 11:36:45;;;;;;;4.00;2.42;;;;;;;21.00;67.08;101790.91;10035665;29;20052;-71
2021/07/09 11:42:03;;;;;;;7.43;2.45;;;;;;;21.03;68.81;101795.78;10028695;29;20047;-71
2021/07/09 11:47:03;;;;;;;5.07;2.55;;;;;;;20.96;67.39;101792.84;10031833;29;20082;-70
2021/07/09 11:52:06;;;;;;;8.23;2.72;;;;;;;20.94;67.20;101789.59;10029553;29;20055;-70
2021/07/09 11:57:06;;;;;;;6.25;2.63;;;;;;;20.87;67.93;101786.69;10041027;29;20134;-71
2021/07/09 12:02:15;;;;;;;6.65;2.60;;;;;;;20.83;68.72;101785.78;10033035;28;20047;-69
2021/07/09 12:07:21;;;;;;;9.90;3.40;;;;;;;20.75;70.02;101774.50;10019116;29;20913;-70
2021/07/09 12:12:18;;;;;;;6.05;3.38;;;;;;;20.78;70.99;101784.88;10021921;29;20052;-71
2021/07/09 12:17:15;;;;;;;6.82;4.20;;;;;;;20.76;71.74;101770.53;10026016;29;20419;-69
2021/07/09 12:22:26;;;;;;;6.40;4.30;;;;;;;20.74;71.99;101761.75;10038033;28;20404;-70
2021/07/09 12:27:22;;;;;;;5.32;4.05;;;;;;;20.80;72.62;101754.75;10027086;29;20082;-71
2021/07/09 12:32:19;;;;;;;8.02;4.15;;;;;;;20.76;72.17;101748.31;10028583;29;20075;-69
2021/07/09 12:37:23;;;;;;;6.43;4.30;;;;;;;20.77;72.72;101752.72;10023871;29;20563;-71
2021/07/09 12:42:22;;;;;;;8.75;4.38;;;;;;;20.84;73.41;101748.47;10030546;29;20087;-71
2021/07/09 12:47:19;;;;;;;8.32;4.68;;;;;;;20.89;72.82;101753.75;10012688;29;20087;-70
2021/07/09 12:52:17;;;;;;;10.60;5.53;;;;;;;20.91;72.35;101745.84;10034877;29;20071;-70
2021/07/09 12:57:14;;;;;;;6.93;3.85;;;;;;;20.90;71.77;101747.81;10031962;29;20731;-70
2021/07/09 13:02:10;;;;;;;7.68;3.83;;;;;;;20.92;71.18;101744.69;10033722;28;20072;-71
2021/07/09 13:07:12;;;;;;;6.00;4.20;;;;;;;20.94;71.73;101742.34;10028017;29;20099;-70
2021/07/09 13:12:15;;;;;;;6.03;3.90;;;;;;;21.00;71.33;101738.09;10027654;28;20044;-71
2021/07/09 13:17:17;;;;;;;5.75;4.57;;;;;;;21.03;72.47;101737.38;10016576;29;20048;-71
2021/07/09 13:22:14;;;;;;;8.18;4.45;;;;;;;21.05;72.23;101732.28;10023493;29;20451;-71
2021/07/09 13:27:24;;;;;;;5.38;4.05;;;;;;;21.01;72.34;101731.38;10023004;29;20058;-69
2021/07/09 13:32:21;;;;;;;6.35;4.65;;;;;;;21.01;72.00;101725.81;10020014;29;20056;-71
2021/07/09 13:37:17;;;;;;;7.60;5.10;;;;;;;20.95;71.62;101728.06;10025198;29;20051;-68
2021/07/09 13:42:14;;;;;;;8.75;5.53;;;;;;;20.91;72.15;101732.78;10025278;29;20068;-70
2021/07/09 13:47:10;;;;;;;8.98;4.88;;;;;;;20.86;71.98;101729.47;10029516;29;20198;-70
2021/07/09 13:52:07;;;;;;;8.50;6.25;;;;;;;20.75;72.46;101730.03;10030263;29;20051;-70
2021/07/09 13:57:03;;;;;;;7.05;4.95;;;;;;;20.71;73.11;101731.13;10025911;29;20048;-70
2021/07/09 14:02:00;;;;;;;13.40;7.07;;;;;;;20.70;72.65;101729.50;10025537;29;20083;-70
2021/07/09 14:07:07;;;;;;;12.70;5.50;;;;;;;20.65;72.76;101729.78;10025158;29;20073;-70
2021/07/09 14:12:05;;;;;;;7.88;5.07;;;;;;;20.60;72.91;101728.09;10021855;29;20563;-68
2021/07/09 14:17:03;;;;;;;8.70;4.90;;;;;;;20.61;73.48;101724.16;10028012;29;20050;-67
2021/07/09 14:22:00;;;;;;;9.43;5.30;;;;;;;20.61;73.48;101713.06;10030008;29;20460;-68
2021/07/09 14:26:57;;;;;;;6.32;4.65;;;;;;;20.63;75.49;101712.66;10031690;29;20099;-67
2021/07/09 14:31:53;;;;;;;9.05;5.80;;;;;;;20.58;76.50;101727.66;10029537;29;20140;-68
2021/07/09 14:36:51;;;;;;;12.60;8.40;;;;;;;20.43;78.93;101722.91;10028553;29;20103;-71
2021/07/09 14:41:48;;;;;;;10.93;7.95;;;;;;;20.21;80.17;101722.38;10041866;29;20040;-70
2021/07/09 14:46:44;;;;;;;14.48;8.77;;;;;;;19.93;81.52;101734.38;10037983;28;20110;-70
2021/07/09 14:51:41;;;;;;;11.68;9.48;;;;;;;19.73;82.52;101736.25;10035452;29;20052;-70
2021/07/09 14:56:38;;;;;;;13.25;8.35;;;;;;;19.51;81.38;101729.28;10023835;29;20075;-70
2021/07/09 15:01:35;;;;;;;7.70;4.93;;;;;;;19.49;80.33;101720.50;10035241;29;20082;-72
2021/07/09 15:06:31;;;;;;;7.20;4.10;;;;;;;19.37;78.10;101728.88;10029611;29;20055;-71
2021/07/09 15:11:28;;;;;;;7.95;4.68;;;;;;;19.32;78.39;101726.38;10024901;29;20071;-69
2021/07/09 15:16:24;;;;;;;9.57;7.10;;;;;;;19.00;81.28;101726.25;10033932;29;20113;-69
2021/07/09 15:21:22;;;;;;;11.65;7.75;;;;;;;18.97;83.08;101723.38;10033597;29;20048;-68
2021/07/09 15:26:19;;;;;;;10.57;8.05;;;;;;;18.80;84.20;101728.03;10036972;29;20106;-67
2021/07/09 15:31:16;;;;;;;9.65;7.07;;;;;;;18.83;83.64;101721.00;10040871;28;20050;-66
2021/07/09 15:36:15;;;;;;;13.18;8.73;;;;;;;18.74;83.88;101728.59;10036682;29;20066;-71
2021/07/09 15:41:12;;;;;;;18.95;11.93;;;;;;;18.76;84.11;101726.28;10039711;28;20512;-71
2021/07/09 15:46:09;;;;;;;15.45;8.82;;;;;;;18.78;83.86;101724.00;10036338;29;20082;-65
2021/07/09 15:51:05;;;;;;;11.68;9.32;;;;;;;18.65;83.82;101726.75;10033751;29;20074;-71
2021/07/09 15:56:03;;;;;;;15.05;11.18;;;;;;;18.57;85.27;101722.16;10030500;29;20127;-70
2021/07/09 16:01:00;;;;;;;14.82;11.25;;;;;;;18.56;85.44;101717.75;10032948;29;20086;-70
2021/07/09 16:05:57;;;;;;;16.00;9.75;;;;;;;18.59;86.11;101721.81;10034533;29;20043;-70
2021/07/09 16:10:53;;;;;;;16.05;10.82;;;;;;;18.50;86.55;101719.19;10027022;29;20039;-71
2021/07/09 16:15:50;;;;;;;11.73;8.85;;;;;;;18.43;87.28;101724.50;10024333;29;20082;-69
2021/07/09 16:20:46;;;;;;;10.15;8.55;;;;;;;18.43;87.52;101736.38;10034988;28;20078;-71
2021/07/09 16:25:43;;;;;;;11.30;7.05;;;;;;;18.43;87.30;101741.09;10034424;28;20079;-71
2021/07/09 16:30:39;;;;;;;12.00;7.68;;;;;;;18.27;87.66;101744.56;10034102;29;20047;-70
2021/07/09 16:35:36;;;;;;;10.40;7.07;;;;;;;18.34;87.22;101757.81;10029348;29;20052;-70
2021/07/09 16:40:32;;;;;;;8.43;6.00;;;;;;;18.25;86.62;101752.38;10035288;29;20448;-71
2021/07/09 16:45:30;;;;;;;7.75;5.05;;;;;;;18.11;85.07;101749.16;10018783;29;20084;-69
2021/07/09 16:50:29;;;;;;;6.55;4.40;;;;;;;18.04;84.93;101749.72;10029287;29;20483;-71
2021/07/09 16:55:26;;;;;;;7.10;4.13;;;;;;;18.04;83.83;101763.56;10020010;29;20423;-71
2021/07/09 17:00:23;;;;;;;6.10;3.63;;;;;;;18.01;83.52;101763.41;10026825;29;20134;-71
2021/07/09 17:05:19;;;;;;;5.45;3.30;;;;;;;17.88;83.60;101766.16;10006154;29;20493;-70
2021/07/09 17:10:16;;;;;;;4.78;3.13;;;;;;;17.91;83.64;101769.41;10035030;29;20099;-70
2021/07/09 17:15:13;;;;;;;6.20;3.53;;;;;;;17.85;83.84;101783.47;10024723;29;20073;-72
2021/07/09 17:20:10;;;;;;;7.68;5.03;;;;;;;17.84;84.00;101772.72;10018500;29;20056;-71
2021/07/09 17:25:13;;;;;;;8.20;5.05;;;;;;;17.87;84.63;101770.09;10029656;29;20064;-71
2021/07/09 17:30:12;;;;;;;5.50;3.95;;;;;;;17.80;84.71;101772.59;10028869;28;20056;-70
2021/07/09 17:35:09;;;;;;;6.05;4.18;;;;;;;17.72;85.49;101767.13;10033044;29;20097;-69
2021/07/09 17:40:06;;;;;;;8.00;4.47;;;;;;;17.68;85.92;101761.47;10030990;29;20086;-71
2021/07/09 17:45:16;;;;;;;7.13;4.18;;;;;;;17.59;86.68;101750.50;10029825;29;20069;-71
2021/07/09 17:50:14;;;;;;;6.60;5.40;;;;;;;17.53;87.38;101751.06;10028082;29;20040;-69
2021/07/09 17:55:11;;;;;;;7.07;5.25;;;;;;;17.48;87.85;101745.75;10036605;29;20048;-71
2021/07/09 18:00:08;;;;;;;7.88;5.72;;;;;;;17.49;87.99;101741.81;10023410;29;20052;-70
2021/07/09 18:05:05;;;;;;;12.15;7.85;;;;;;;17.55;88.10;101734.94;10027422;29;20056;-70
2021/07/09 18:10:05;;;;;;;9.77;7.68;;;;;;;17.56;88.24;101725.50;10033224;29;20130;-70
2021/07/09 18:15:06;;;;;;;11.80;8.13;;;;;;;17.58;88.17;101729.53;10029995;29;20047;-69
2021/07/09 18:20:16;;;;;;;14.75;9.88;;;;;;;17.62;88.32;101733.22;10034896;28;20472;-69
2021/07/09 18:25:13;;;;;;;16.55;9.55;;;;;;;17.71;88.86;101727.63;10034436;29;20127;-69
2021/07/09 18:30:10;;;;;;;11.43;8.75;;;;;;;17.69;88.83;101721.63;10032398;29;20084;-69
2021/07/09 18:35:07;;;;;;;16.63;11.75;;;;;;;17.60;89.36;101726.44;10030194;29;20048;-67
2021/07/09 18:40:05;;;;;;;17.77;11.07;;;;;;;17.60;89.50;101716.16;10026662;28;20138;-70
2021/07/09 18:45:03;;;;;;;15.88;11.00;;;;;;;17.60;90.08;101715.38;10038371;29;20051;-69
2021/07/09 18:50:00;;;;;;;17.25;13.02;;;;;;;17.51;90.91;101717.41;10032942;29;20163;-65
2021/07/09 18:54:57;;;;;;;19.17;13.90;;;;;;;17.43;91.38;101711.63;10039448;29;20086;-69
2021/07/09 18:59:53;;;;;;;19.48;14.30;;;;;;;17.46;91.10;101710.94;10041594;29;20076;-70
2021/07/09 19:04:50;;;;;;;21.63;14.77;;;;;;;17.45;91.47;101703.81;10040449;29;20048;-68
2021/07/09 19:09:48;;;;;;;21.27;16.30;;;;;;;17.40;91.08;101701.22;10031814;29;20048;-71
2021/07/09 19:14:44;;;;;;;26.13;15.48;;;;;;;17.40;90.28;101695.72;10032333;29;20067;-69
2021/07/09 19:19:41;;;;;;;23.58;15.45;;;;;;;17.40;90.21;101701.22;10034248;29;20273;-69
2021/07/09 19:24:37;;;;;;;23.58;15.45;;;;;;;17.35;90.60;101704.22;10042663;28;20095;-70
2021/07/09 19:29:36;;;;;;;20.50;15.85;;;;;;;17.34;90.53;101708.16;10040054;28;20055;-70
2021/07/09 19:34:32;;;;;;;22.60;15.85;;;;;;;17.32;89.77;101715.16;10026671;29;21222;-70
2021/07/09 19:39:29;;;;;;;23.63;15.93;;;;;;;17.23;89.72;101706.94;10030043;29;20634;-68
2021/07/09 19:44:25;;;;;;;23.90;16.70;;;;;;;17.20;89.24;101702.09;10035911;29;20461;-70
2021/07/09 19:49:22;;;;;;;22.98;15.23;;;;;;;17.04;90.14;101699.94;10035014;29;20103;-71
2021/07/09 19:54:19;;;;;;;24.55;16.30;;;;;;;17.07;89.59;101703.19;10031873;29;20075;-71
2021/07/09 19:59:24;;;;;;;23.55;16.60;;;;;;;17.10;89.49;101719.88;10026825;29;20058;-70
2021/07/09 20:04:20;;;;;;;21.38;14.23;;;;;;;17.07;89.30;101714.25;10029612;29;20047;-70
2021/07/09 20:09:17;;;;;;;24.30;15.88;;;;;;;17.04;89.41;101711.00;10036811;29;20044;-68
2021/07/09 20:14:13;;;;;;;26.67;16.40;;;;;;;16.99;89.58;101708.44;10029157;29;20581;-70
2021/07/09 20:19:10;;;;;;;24.38;15.75;;;;;;;17.03;89.56;101705.81;10015422;29;20123;-68
2021/07/09 20:24:06;;;;;;;22.60;14.02;;;;;;;16.98;88.70;101712.34;10041615;28;20071;-69
2021/07/09 20:29:04;;;;;;;22.95;14.43;;;;;;;16.82;88.28;101714.09;10025304;29;20405;-70
2021/07/09 20:34:03;;;;;;;20.35;14.35;;;;;;;16.86;88.41;101715.03;10027518;28;20111;-69
2021/07/09 20:39:00;;;;;;;21.88;14.10;;;;;;;16.80;88.49;101710.84;10026175;29;20055;-70
2021/07/09 20:43:57;;;;;;;21.52;12.95;;;;;;;16.82;88.06;101701.13;10034765;29;20054;-70
2021/07/09 20:48:54;;;;;;;22.40;15.27;;;;;;;16.80;88.54;101699.81;10023818;28;20051;-69
2021/07/09 20:53:52;;;;;;;25.52;16.20;;;;;;;16.73;88.98;101710.56;10026094;29;20483;-69
2021/07/09 20:58:49;;;;;;;24.48;16.73;;;;;;;16.78;89.24;101710.38;10024073;29;20047;-69
2021/07/09 21:03:45;;;;;;;28.65;18.83;;;;;;;16.79;89.40;101714.78;10025624;29;20140;-69
2021/07/09 21:08:42;;;;;;;25.30;18.08;;;;;;;16.82;89.72;101714.09;10031359;29;20052;-69
2021/07/09 21:13:38;;;;;;;24.23;16.55;;;;;;;16.82;89.85;101703.03;10025775;29;20074;-69
2021/07/09 21:18:35;;;;;;;28.75;19.02;;;;;;;16.72;90.13;101708.94;10030426;29;20507;-69
2021/07/09 21:23:31;;;;;;;30.08;20.35;;;;;;;16.73;90.28;101707.78;10032299;29;20039;-69
2021/07/09 21:28:28;;;;;;;25.65;16.58;;;;;;;16.77;90.19;101694.94;10029117;29;20101;-69
2021/07/09 21:33:24;;;;;;;25.20;15.93;;;;;;;16.78;90.41;101696.56;10026544;29;20297;-68
2021/07/09 21:38:21;;;;;;;30.25;15.65;;;;;;;16.73;90.06;101696.75;10028695;29;20472;-69
2021/07/09 21:43:18;;;;;;;26.80;15.32;;;;;;;16.76;90.15;101693.34;10037451;29;20063;-69
2021/07/09 21:48:15;;;;;;;24.90;15.85;;;;;;;16.74;89.78;101696.41;10025243;29;20745;-69
2021/07/09 21:53:11;;;;;;;23.05;15.65;;;;;;;16.74;89.96;101695.63;10026062;29;20040;-68
2021/07/09 21:58:09;;;;;;;22.15;14.80;;;;;;;16.71;90.16;101690.75;10028272;29;20490;-69
2021/07/09 22:03:16;;;;;;;22.90;14.77;;;;;;;16.60;89.80;101696.69;10017336;29;20040;-68
2021/07/09 22:08:13;;;;;;;25.38;15.80;;;;;;;16.50;90.68;101686.03;10010437;29;20139;-65
2021/07/09 22:13:09;;;;;;;23.95;15.63;;;;;;;16.48;90.54;101693.84;10027269;29;20039;-69
2021/07/09 22:18:06;;;;;;;23.85;16.45;;;;;;;16.52;90.35;101691.19;10024962;29;20048;-70
2021/07/09 22:23:03;;;;;;;22.08;15.68;;;;;;;16.55;90.15;101680.31;10027809;29;20076;-71
2021/07/09 22:28:00;;;;;;;20.83;15.25;;;;;;;16.47;90.25;101669.31;10027583;29;20052;-71
2021/07/09 22:32:56;;;;;;;22.55;15.43;;;;;;;16.36;90.66;101674.41;10024732;28;20158;-70
2021/07/09 22:37:52;;;;;;;23.27;14.95;;;;;;;16.41;90.42;101671.47;10027917;29;20098;-69
2021/07/09 22:42:49;;;;;;;26.27;14.18;;;;;;;16.43;90.41;101669.19;10029876;29;20072;-68